Aérodrome :
LOGIN :

S'inscrire | Disclaimer

   EN    FR    IT 

 










Légende :    VFR   VFR Marginal   IFR   IFR Intensif   IFR Très Intensif
Visi : 
Plafond : 
>= 8 km
>= 3000ft
5 à 8 km
1000 à 3000 ft
1500m à 5 km
500 à 1000 ft
800 à 1500m
200 à 500 ft
< 800m
< 200 ft
Symboles :   Orages  Brouillard  Fortes neiges  Fortes précipitations  Vent > 20 kt
SIGMETs :   Divers  Orages  Givrage  Turbulence  Onde Orograph.  Cendres Volcan.







- Altitude de l'aérodrome : 1234 ft
- Code IATA : LUX


ELLX - Luxembourg Findel

DERNIER METAR :
  • 211720Z 10005KT CAVOK 21/06 Q1015 NOSIG

METARs EXPIRÉS :
  • 211650Z 11006KT CAVOK 22/07 Q1015 NOSIG
  • 211620Z 11007KT 090V150 CAVOK 23/07 Q1015 NOSIG
  • 211550Z 11007KT 070V140 CAVOK 23/07 Q1016 NOSIG
  • 211520Z 14008KT 080V180 CAVOK 23/08 Q1016 NOSIG
  • 211450Z 14008KT 080V200 CAVOK 23/08 Q1016 NOSIG

TAF TAF ELLX
Valide du 21 à 18h jusqu'au 23 à 00h UTC


211700Z 2118/2224 15006KT CAVOK
TEMPO 2216/2224 4000 RA SHRA BKN015 SCT020CB
PROB40
TEMPO 2216/2224 3000 TSRA BKN018CB
BECMG 2218/2220 BKN012
BECMG 2221/2223 28010KT
ATIS : +352 4798 27300
Météo : +352 4798 27010 / 27050
Pas de NOTAMs connus pour ce terrain.



MET'MAP, la Météo Aéronautique d'un coup d'oeil ! - Copyright ORBIFLY Décembre 2007 - Disclaimer

ORBIFLY MET'MAP TEAM :

Programmation & Développement : Alexandra Zaïnal
Conception & Développement : Baudouin d'Aumeries
Co-Programmation & Développement : Marc-Olivier Méhu
Soutien technique & logistique : Manuel Goepfert

Contact : metmap@orbifly.com




SOURCES & CREDITS :

   NOAA